sensor_id;sensor_type;location;lat;lon;timestamp;P1;durP1;ratioP1;P2;durP2;ratioP2
43646;SDS011;56152;49.996;18.980;2023-09-19T00:01:55;19.85;;;14.65;;
43646;SDS011;56152;49.996;18.980;2023-09-19T00:07:00;18.60;;;14.70;;
43646;SDS011;56152;49.996;18.980;2023-09-19T00:12:06;17.02;;;13.10;;
43646;SDS011;56152;49.996;18.980;2023-09-19T00:17:14;15.13;;;13.23;;
43646;SDS011;56152;49.996;18.980;2023-09-19T00:22:20;14.48;;;11.70;;
43646;SDS011;56152;49.996;18.980;2023-09-19T00:27:25;15.27;;;11.50;;
43646;SDS011;56152;49.996;18.980;2023-09-19T00:32:28;15.07;;;12.15;;
43646;SDS011;56152;49.996;18.980;2023-09-19T00:37:33;15.60;;;10.85;;
43646;SDS011;56152;49.996;18.980;2023-09-19T00:42:47;18.33;;;15.32;;
43646;SDS011;56152;49.996;18.980;2023-09-19T00:47:53;20.85;;;14.35;;
43646;SDS011;56152;49.996;18.980;2023-09-19T00:52:56;16.05;;;12.80;;
43646;SDS011;56152;49.996;18.980;2023-09-19T00:58:09;16.10;;;12.52;;
43646;SDS011;56152;49.996;18.980;2023-09-19T01:03:12;14.70;;;12.05;;
43646;SDS011;56152;49.996;18.980;2023-09-19T01:08:16;15.38;;;11.98;;
43646;SDS011;56152;49.996;18.980;2023-09-19T01:13:21;17.80;;;12.70;;
43646;SDS011;56152;49.996;18.980;2023-09-19T01:18:34;19.00;;;14.00;;
43646;SDS011;56152;49.996;18.980;2023-09-19T01:23:48;16.08;;;12.98;;
43646;SDS011;56152;49.996;18.980;2023-09-19T01:29:22;21.15;;;14.82;;
43646;SDS011;56152;49.996;18.980;2023-09-19T01:34:47;17.20;;;12.68;;
43646;SDS011;56152;49.996;18.980;2023-09-19T01:39:51;17.98;;;13.32;;
43646;SDS011;56152;49.996;18.980;2023-09-19T01:45:09;16.85;;;12.88;;
43646;SDS011;56152;49.996;18.980;2023-09-19T01:50:22;16.00;;;12.35;;
43646;SDS011;56152;49.996;18.980;2023-09-19T01:55:34;14.75;;;11.30;;
43646;SDS011;56152;49.996;18.980;2023-09-19T02:00:41;18.67;;;14.63;;
43646;SDS011;56152;49.996;18.980;2023-09-19T02:05:50;17.42;;;13.23;;
43646;SDS011;56152;49.996;18.980;2023-09-19T02:10:54;16.75;;;13.20;;
43646;SDS011;56152;49.996;18.980;2023-09-19T02:15:57;17.13;;;14.27;;
43646;SDS011;56152;49.996;18.980;2023-09-19T02:21:03;16.77;;;14.32;;
43646;SDS011;56152;49.996;18.980;2023-09-19T02:26:06;15.77;;;14.07;;
43646;SDS011;56152;49.996;18.980;2023-09-19T02:31:09;17.50;;;14.63;;
43646;SDS011;56152;49.996;18.980;2023-09-19T02:36:14;17.33;;;14.15;;
43646;SDS011;56152;49.996;18.980;2023-09-19T02:41:17;24.02;;;21.00;;
43646;SDS011;56152;49.996;18.980;2023-09-19T02:46:22;26.35;;;19.23;;
43646;SDS011;56152;49.996;18.980;2023-09-19T02:51:29;23.40;;;19.80;;
43646;SDS011;56152;49.996;18.980;2023-09-19T02:56:34;27.48;;;18.77;;
43646;SDS011;56152;49.996;18.980;2023-09-19T03:01:37;25.50;;;19.52;;
43646;SDS011;56152;49.996;18.980;2023-09-19T03:06:43;29.45;;;18.77;;
43646;SDS011;56152;49.996;18.980;2023-09-19T03:11:45;26.33;;;17.23;;
43646;SDS011;56152;49.996;18.980;2023-09-19T03:16:47;23.50;;;18.50;;
43646;SDS011;56152;49.996;18.980;2023-09-19T03:21:55;24.92;;;18.83;;
43646;SDS011;56152;49.996;18.980;2023-09-19T03:27:01;24.50;;;20.17;;
43646;SDS011;56152;49.996;18.980;2023-09-19T03:32:06;21.13;;;16.13;;
43646;SDS011;56152;49.996;18.980;2023-09-19T03:37:12;19.80;;;15.43;;
43646;SDS011;56152;49.996;18.980;2023-09-19T03:42:16;20.80;;;17.48;;
43646;SDS011;56152;49.996;18.980;2023-09-19T03:47:25;21.45;;;16.88;;
43646;SDS011;56152;49.996;18.980;2023-09-19T03:52:32;21.55;;;14.95;;
43646;SDS011;56152;49.996;18.980;2023-09-19T03:57:35;17.90;;;14.32;;
43646;SDS011;56152;49.996;18.980;2023-09-19T04:02:38;21.10;;;15.55;;
43646;SDS011;56152;49.996;18.980;2023-09-19T04:07:43;19.20;;;17.17;;
43646;SDS011;56152;49.996;18.980;2023-09-19T04:12:51;20.52;;;16.15;;
43646;SDS011;56152;49.996;18.980;2023-09-19T04:17:54;20.67;;;15.68;;
43646;SDS011;56152;49.996;18.980;2023-09-19T04:22:58;21.10;;;15.20;;
43646;SDS011;56152;49.996;18.980;2023-09-19T04:28:00;20.00;;;15.57;;
43646;SDS011;56152;49.996;18.980;2023-09-19T04:33:06;17.63;;;14.70;;
43646;SDS011;56152;49.996;18.980;2023-09-19T04:38:11;18.83;;;15.75;;
43646;SDS011;56152;49.996;18.980;2023-09-19T04:43:13;20.00;;;15.70;;
43646;SDS011;56152;49.996;18.980;2023-09-19T04:48:19;29.58;;;19.67;;
43646;SDS011;56152;49.996;18.980;2023-09-19T04:53:23;29.40;;;21.38;;
43646;SDS011;56152;49.996;18.980;2023-09-19T04:58:25;28.38;;;19.35;;
43646;SDS011;56152;49.996;18.980;2023-09-19T05:03:39;18.70;;;16.08;;
43646;SDS011;56152;49.996;18.980;2023-09-19T05:08:45;18.35;;;16.35;;
43646;SDS011;56152;49.996;18.980;2023-09-19T05:13:51;21.95;;;16.52;;
43646;SDS011;56152;49.996;18.980;2023-09-19T05:18:57;18.75;;;16.63;;
43646;SDS011;56152;49.996;18.980;2023-09-19T05:24:07;23.50;;;18.77;;
43646;SDS011;56152;49.996;18.980;2023-09-19T05:29:11;24.55;;;20.70;;
43646;SDS011;56152;49.996;18.980;2023-09-19T05:34:13;22.35;;;19.73;;
43646;SDS011;56152;49.996;18.980;2023-09-19T05:39:18;24.17;;;19.02;;
43646;SDS011;56152;49.996;18.980;2023-09-19T05:44:22;25.10;;;19.63;;
43646;SDS011;56152;49.996;18.980;2023-09-19T05:49:25;31.15;;;22.67;;
43646;SDS011;56152;49.996;18.980;2023-09-19T05:54:29;20.40;;;17.40;;
43646;SDS011;56152;49.996;18.980;2023-09-19T05:59:33;20.83;;;15.73;;
43646;SDS011;56152;49.996;18.980;2023-09-19T06:04:36;16.02;;;12.85;;
43646;SDS011;56152;49.996;18.980;2023-09-19T06:09:42;16.73;;;11.45;;
43646;SDS011;56152;49.996;18.980;2023-09-19T06:14:45;13.13;;;11.20;;
43646;SDS011;56152;49.996;18.980;2023-09-19T06:19:49;18.85;;;14.35;;
43646;SDS011;56152;49.996;18.980;2023-09-19T06:24:54;14.48;;;11.18;;
43646;SDS011;56152;49.996;18.980;2023-09-19T06:29:57;14.50;;;11.63;;
43646;SDS011;56152;49.996;18.980;2023-09-19T06:35:00;15.20;;;10.18;;
43646;SDS011;56152;49.996;18.980;2023-09-19T06:40:05;12.02;;;10.07;;
43646;SDS011;56152;49.996;18.980;2023-09-19T06:45:10;10.55;;;9.45;;
43646;SDS011;56152;49.996;18.980;2023-09-19T06:50:14;12.18;;;9.15;;
43646;SDS011;56152;49.996;18.980;2023-09-19T07:07:34;7.07;;;3.92;;
43646;SDS011;56152;49.996;18.980;2023-09-19T07:12:59;6.03;;;3.65;;
43646;SDS011;56152;49.996;18.980;2023-09-19T07:18:02;5.72;;;4.18;;
43646;SDS011;56152;49.996;18.980;2023-09-19T07:23:08;5.57;;;4.40;;
43646;SDS011;56152;49.996;18.980;2023-09-19T07:28:11;7.15;;;3.40;;
43646;SDS011;56152;49.996;18.980;2023-09-19T07:33:17;6.60;;;4.10;;
43646;SDS011;56152;49.996;18.980;2023-09-19T07:38:26;9.55;;;4.30;;
43646;SDS011;56152;49.996;18.980;2023-09-19T07:43:28;7.93;;;4.53;;
43646;SDS011;56152;49.996;18.980;2023-09-19T07:48:31;8.02;;;4.22;;
43646;SDS011;56152;49.996;18.980;2023-09-19T07:53:38;7.45;;;5.00;;
43646;SDS011;56152;49.996;18.980;2023-09-19T07:58:41;10.13;;;7.35;;
43646;SDS011;56152;49.996;18.980;2023-09-19T08:03:44;12.05;;;5.32;;
43646;SDS011;56152;49.996;18.980;2023-09-19T08:08:51;10.48;;;5.20;;
43646;SDS011;56152;49.996;18.980;2023-09-19T08:13:55;8.65;;;4.68;;
43646;SDS011;56152;49.996;18.980;2023-09-19T08:19:01;7.60;;;4.38;;
43646;SDS011;56152;49.996;18.980;2023-09-19T08:24:05;7.18;;;4.75;;
43646;SDS011;56152;49.996;18.980;2023-09-19T08:29:09;7.28;;;4.20;;
43646;SDS011;56152;49.996;18.980;2023-09-19T08:34:13;6.43;;;4.30;;
43646;SDS011;56152;49.996;18.980;2023-09-19T08:39:17;12.82;;;5.68;;
43646;SDS011;56152;49.996;18.980;2023-09-19T08:44:23;11.43;;;5.50;;
43646;SDS011;56152;49.996;18.980;2023-09-19T08:49:33;7.38;;;4.90;;
43646;SDS011;56152;49.996;18.980;2023-09-19T08:54:43;7.78;;;4.28;;
43646;SDS011;56152;49.996;18.980;2023-09-19T08:59:48;6.88;;;4.45;;
43646;SDS011;56152;49.996;18.980;2023-09-19T09:04:51;6.72;;;3.78;;
43646;SDS011;56152;49.996;18.980;2023-09-19T09:09:55;8.70;;;4.80;;
43646;SDS011;56152;49.996;18.980;2023-09-19T09:14:57;9.57;;;4.90;;
43646;SDS011;56152;49.996;18.980;2023-09-19T09:20:00;10.68;;;4.75;;
43646;SDS011;56152;49.996;18.980;2023-09-19T09:25:04;5.97;;;4.07;;
43646;SDS011;56152;49.996;18.980;2023-09-19T09:30:07;8.27;;;5.10;;
43646;SDS011;56152;49.996;18.980;2023-09-19T09:35:10;7.28;;;5.80;;
43646;SDS011;56152;49.996;18.980;2023-09-19T09:40:16;7.72;;;5.70;;
43646;SDS011;56152;49.996;18.980;2023-09-19T09:45:36;10.43;;;6.47;;
43646;SDS011;56152;49.996;18.980;2023-09-19T09:50:39;13.52;;;7.60;;
43646;SDS011;56152;49.996;18.980;2023-09-19T09:56:02;11.80;;;7.15;;
43646;SDS011;56152;49.996;18.980;2023-09-19T10:01:07;9.82;;;5.38;;
43646;SDS011;56152;49.996;18.980;2023-09-19T10:06:15;8.88;;;6.07;;
43646;SDS011;56152;49.996;18.980;2023-09-19T10:11:29;6.88;;;5.50;;
43646;SDS011;56152;49.996;18.980;2023-09-19T10:16:32;13.02;;;6.78;;
43646;SDS011;56152;49.996;18.980;2023-09-19T10:21:36;7.63;;;6.30;;
43646;SDS011;56152;49.996;18.980;2023-09-19T10:26:41;10.00;;;6.28;;
43646;SDS011;56152;49.996;18.980;2023-09-19T10:31:46;5.65;;;4.80;;
43646;SDS011;56152;49.996;18.980;2023-09-19T10:36:50;8.32;;;6.50;;
43646;SDS011;56152;49.996;18.980;2023-09-19T10:41:55;8.35;;;6.50;;
43646;SDS011;56152;49.996;18.980;2023-09-19T10:46:59;10.95;;;5.68;;
43646;SDS011;56152;49.996;18.980;2023-09-19T10:52:03;7.60;;;5.93;;
43646;SDS011;56152;49.996;18.980;2023-09-19T10:57:12;10.63;;;6.55;;
43646;SDS011;56152;49.996;18.980;2023-09-19T11:02:19;7.22;;;5.35;;
43646;SDS011;56152;49.996;18.980;2023-09-19T11:07:25;9.48;;;5.90;;
43646;SDS011;56152;49.996;18.980;2023-09-19T11:17:54;11.30;;;6.07;;
43646;SDS011;56152;49.996;18.980;2023-09-19T11:23:17;10.88;;;6.80;;
43646;SDS011;56152;49.996;18.980;2023-09-19T11:28:33;9.77;;;7.97;;
43646;SDS011;56152;49.996;18.980;2023-09-19T11:33:37;10.93;;;6.57;;
43646;SDS011;56152;49.996;18.980;2023-09-19T11:38:59;9.65;;;7.35;;
43646;SDS011;56152;49.996;18.980;2023-09-19T11:49:36;8.30;;;7.10;;
43646;SDS011;56152;49.996;18.980;2023-09-19T11:54:42;13.20;;;8.02;;
43646;SDS011;56152;49.996;18.980;2023-09-19T11:59:54;12.82;;;10.98;;
43646;SDS011;56152;49.996;18.980;2023-09-19T12:04:58;17.98;;;11.68;;
43646;SDS011;56152;49.996;18.980;2023-09-19T12:10:04;11.85;;;10.23;;
43646;SDS011;56152;49.996;18.980;2023-09-19T12:15:13;13.50;;;9.50;;
43646;SDS011;56152;49.996;18.980;2023-09-19T12:20:15;14.73;;;9.15;;
43646;SDS011;56152;49.996;18.980;2023-09-19T12:25:24;9.95;;;7.20;;
43646;SDS011;56152;49.996;18.980;2023-09-19T12:30:45;8.15;;;6.47;;
43646;SDS011;56152;49.996;18.980;2023-09-19T12:35:49;10.27;;;7.78;;
43646;SDS011;56152;49.996;18.980;2023-09-19T12:40:53;6.82;;;6.10;;
43646;SDS011;56152;49.996;18.980;2023-09-19T12:45:58;11.68;;;5.40;;
43646;SDS011;56152;49.996;18.980;2023-09-19T12:51:04;7.60;;;6.13;;
43646;SDS011;56152;49.996;18.980;2023-09-19T12:56:09;35.28;;;29.50;;
43646;SDS011;56152;49.996;18.980;2023-09-19T13:01:15;7.78;;;6.25;;
43646;SDS011;56152;49.996;18.980;2023-09-19T13:06:34;7.20;;;5.20;;
43646;SDS011;56152;49.996;18.980;2023-09-19T13:11:43;5.80;;;4.57;;
43646;SDS011;56152;49.996;18.980;2023-09-19T13:16:56;8.40;;;5.15;;
43646;SDS011;56152;49.996;18.980;2023-09-19T13:22:04;6.95;;;4.75;;
43646;SDS011;56152;49.996;18.980;2023-09-19T13:27:09;5.55;;;3.90;;
43646;SDS011;56152;49.996;18.980;2023-09-19T13:32:16;9.45;;;4.38;;
43646;SDS011;56152;49.996;18.980;2023-09-19T13:37:18;9.05;;;4.10;;
43646;SDS011;56152;49.996;18.980;2023-09-19T13:42:21;9.35;;;4.40;;
43646;SDS011;56152;49.996;18.980;2023-09-19T13:47:34;5.32;;;4.00;;
43646;SDS011;56152;49.996;18.980;2023-09-19T13:52:38;10.15;;;4.70;;
43646;SDS011;56152;49.996;18.980;2023-09-19T13:57:42;6.82;;;3.60;;
43646;SDS011;56152;49.996;18.980;2023-09-19T14:02:49;6.45;;;3.67;;
43646;SDS011;56152;49.996;18.980;2023-09-19T14:07:52;8.10;;;3.28;;
43646;SDS011;56152;49.996;18.980;2023-09-19T14:12:56;7.18;;;3.95;;
43646;SDS011;56152;49.996;18.980;2023-09-19T14:18:01;15.55;;;12.68;;
43646;SDS011;56152;49.996;18.980;2023-09-19T14:23:05;6.18;;;3.75;;
43646;SDS011;56152;49.996;18.980;2023-09-19T14:28:08;25.05;;;19.52;;
43646;SDS011;56152;49.996;18.980;2023-09-19T14:33:14;41.60;;;32.05;;
43646;SDS011;56152;49.996;18.980;2023-09-19T14:38:17;8.98;;;7.53;;
43646;SDS011;56152;49.996;18.980;2023-09-19T14:43:20;6.45;;;4.53;;
43646;SDS011;56152;49.996;18.980;2023-09-19T14:48:25;12.10;;;8.73;;
43646;SDS011;56152;49.996;18.980;2023-09-19T14:53:27;7.07;;;3.85;;
43646;SDS011;56152;49.996;18.980;2023-09-19T14:58:29;5.22;;;3.58;;
43646;SDS011;56152;49.996;18.980;2023-09-19T15:03:34;6.43;;;3.97;;
43646;SDS011;56152;49.996;18.980;2023-09-19T15:08:40;6.00;;;3.00;;
43646;SDS011;56152;49.996;18.980;2023-09-19T15:13:47;8.55;;;3.50;;
43646;SDS011;56152;49.996;18.980;2023-09-19T15:18:54;4.60;;;2.95;;
43646;SDS011;56152;49.996;18.980;2023-09-19T15:23:57;11.27;;;3.05;;
43646;SDS011;56152;49.996;18.980;2023-09-19T15:29:00;6.82;;;3.30;;
43646;SDS011;56152;49.996;18.980;2023-09-19T15:34:10;5.53;;;2.97;;
43646;SDS011;56152;49.996;18.980;2023-09-19T15:39:16;7.47;;;4.82;;
43646;SDS011;56152;49.996;18.980;2023-09-19T15:44:18;6.28;;;3.30;;
43646;SDS011;56152;49.996;18.980;2023-09-19T15:49:22;4.78;;;3.33;;
43646;SDS011;56152;49.996;18.980;2023-09-19T15:54:24;5.65;;;3.85;;
43646;SDS011;56152;49.996;18.980;2023-09-19T15:59:28;5.47;;;3.28;;
43646;SDS011;56152;49.996;18.980;2023-09-19T16:04:37;5.30;;;4.25;;
43646;SDS011;56152;49.996;18.980;2023-09-19T16:09:50;4.07;;;3.25;;
43646;SDS011;56152;49.996;18.980;2023-09-19T16:14:52;5.95;;;3.80;;
43646;SDS011;56152;49.996;18.980;2023-09-19T16:20:00;5.10;;;3.80;;
43646;SDS011;56152;49.996;18.980;2023-09-19T16:25:02;7.90;;;4.20;;
43646;SDS011;56152;49.996;18.980;2023-09-19T16:30:06;10.85;;;4.78;;
43646;SDS011;56152;49.996;18.980;2023-09-19T16:35:12;9.50;;;5.43;;
43646;SDS011;56152;49.996;18.980;2023-09-19T16:40:15;8.07;;;4.57;;
43646;SDS011;56152;49.996;18.980;2023-09-19T16:45:18;4.93;;;3.70;;
43646;SDS011;56152;49.996;18.980;2023-09-19T16:50:27;9.63;;;3.80;;
43646;SDS011;56152;49.996;18.980;2023-09-19T16:55:30;4.78;;;3.50;;
43646;SDS011;56152;49.996;18.980;2023-09-19T17:00:40;4.10;;;3.20;;
43646;SDS011;56152;49.996;18.980;2023-09-19T17:05:46;5.57;;;4.40;;
43646;SDS011;56152;49.996;18.980;2023-09-19T17:10:49;5.60;;;3.70;;
43646;SDS011;56152;49.996;18.980;2023-09-19T17:15:58;6.53;;;3.38;;
43646;SDS011;56152;49.996;18.980;2023-09-19T17:21:10;6.78;;;3.90;;
43646;SDS011;56152;49.996;18.980;2023-09-19T17:26:17;12.60;;;4.50;;
43646;SDS011;56152;49.996;18.980;2023-09-19T17:31:23;7.13;;;4.10;;
43646;SDS011;56152;49.996;18.980;2023-09-19T17:36:28;7.90;;;4.47;;
43646;SDS011;56152;49.996;18.980;2023-09-19T17:41:32;12.82;;;6.65;;
43646;SDS011;56152;49.996;18.980;2023-09-19T17:46:37;7.22;;;5.25;;
43646;SDS011;56152;49.996;18.980;2023-09-19T17:51:46;6.78;;;4.75;;
43646;SDS011;56152;49.996;18.980;2023-09-19T17:56:49;7.10;;;4.22;;
43646;SDS011;56152;49.996;18.980;2023-09-19T18:01:52;9.23;;;5.13;;
43646;SDS011;56152;49.996;18.980;2023-09-19T18:06:56;6.88;;;5.47;;
43646;SDS011;56152;49.996;18.980;2023-09-19T18:12:15;6.10;;;5.03;;
43646;SDS011;56152;49.996;18.980;2023-09-19T18:17:23;6.72;;;5.55;;
43646;SDS011;56152;49.996;18.980;2023-09-19T18:22:31;7.43;;;5.30;;
43646;SDS011;56152;49.996;18.980;2023-09-19T18:27:35;7.28;;;4.68;;
43646;SDS011;56152;49.996;18.980;2023-09-19T18:32:41;8.02;;;4.88;;
43646;SDS011;56152;49.996;18.980;2023-09-19T18:37:46;10.85;;;6.72;;
43646;SDS011;56152;49.996;18.980;2023-09-19T18:42:48;14.75;;;9.30;;
43646;SDS011;56152;49.996;18.980;2023-09-19T18:47:53;12.48;;;7.68;;
43646;SDS011;56152;49.996;18.980;2023-09-19T18:53:09;16.25;;;10.60;;
43646;SDS011;56152;49.996;18.980;2023-09-19T18:58:23;14.93;;;10.48;;
43646;SDS011;56152;49.996;18.980;2023-09-19T19:03:27;13.32;;;9.50;;
43646;SDS011;56152;49.996;18.980;2023-09-19T19:08:37;13.38;;;9.13;;
43646;SDS011;56152;49.996;18.980;2023-09-19T19:13:40;11.38;;;8.00;;
43646;SDS011;56152;49.996;18.980;2023-09-19T19:18:43;9.85;;;7.25;;
43646;SDS011;56152;49.996;18.980;2023-09-19T19:23:49;9.52;;;6.47;;
43646;SDS011;56152;49.996;18.980;2023-09-19T19:28:54;14.23;;;10.23;;
43646;SDS011;56152;49.996;18.980;2023-09-19T19:33:59;8.95;;;6.43;;
43646;SDS011;56152;49.996;18.980;2023-09-19T19:39:09;6.18;;;5.07;;
43646;SDS011;56152;49.996;18.980;2023-09-19T19:44:25;6.57;;;4.53;;
43646;SDS011;56152;49.996;18.980;2023-09-19T19:49:32;5.90;;;4.53;;
43646;SDS011;56152;49.996;18.980;2023-09-19T19:54:41;4.78;;;4.05;;
43646;SDS011;56152;49.996;18.980;2023-09-19T19:59:51;6.35;;;4.38;;
43646;SDS011;56152;49.996;18.980;2023-09-19T20:04:54;8.02;;;4.53;;
43646;SDS011;56152;49.996;18.980;2023-09-19T20:09:59;10.45;;;4.63;;
43646;SDS011;56152;49.996;18.980;2023-09-19T20:15:01;7.43;;;4.00;;
43646;SDS011;56152;49.996;18.980;2023-09-19T20:20:04;8.27;;;5.53;;
43646;SDS011;56152;49.996;18.980;2023-09-19T20:25:17;10.27;;;5.57;;
43646;SDS011;56152;49.996;18.980;2023-09-19T20:30:20;9.60;;;5.28;;
43646;SDS011;56152;49.996;18.980;2023-09-19T20:35:23;14.63;;;6.18;;
43646;SDS011;56152;49.996;18.980;2023-09-19T20:40:27;9.20;;;4.53;;
43646;SDS011;56152;49.996;18.980;2023-09-19T20:45:29;7.05;;;4.45;;
43646;SDS011;56152;49.996;18.980;2023-09-19T20:50:40;8.00;;;5.60;;
43646;SDS011;56152;49.996;18.980;2023-09-19T20:55:45;8.05;;;5.70;;
43646;SDS011;56152;49.996;18.980;2023-09-19T21:00:47;12.93;;;6.63;;
43646;SDS011;56152;49.996;18.980;2023-09-19T21:05:59;10.15;;;5.72;;
43646;SDS011;56152;49.996;18.980;2023-09-19T21:16:13;6.45;;;5.45;;
43646;SDS011;56152;49.996;18.980;2023-09-19T21:21:17;9.50;;;5.15;;
43646;SDS011;56152;49.996;18.980;2023-09-19T21:26:24;6.60;;;5.45;;
43646;SDS011;56152;49.996;18.980;2023-09-19T21:31:30;8.07;;;5.13;;
43646;SDS011;56152;49.996;18.980;2023-09-19T21:36:33;11.23;;;5.63;;
43646;SDS011;56152;49.996;18.980;2023-09-19T21:41:41;10.77;;;7.28;;
43646;SDS011;56152;49.996;18.980;2023-09-19T21:46:43;11.55;;;7.38;;
43646;SDS011;56152;49.996;18.980;2023-09-19T21:51:52;9.38;;;7.05;;
43646;SDS011;56152;49.996;18.980;2023-09-19T21:56:56;9.40;;;4.97;;
43646;SDS011;56152;49.996;18.980;2023-09-19T22:02:01;7.63;;;4.70;;
43646;SDS011;56152;49.996;18.980;2023-09-19T22:07:08;5.57;;;3.90;;
43646;SDS011;56152;49.996;18.980;2023-09-19T22:12:29;8.52;;;7.20;;
43646;SDS011;56152;49.996;18.980;2023-09-19T22:17:37;11.57;;;7.60;;
43646;SDS011;56152;49.996;18.980;2023-09-19T22:22:50;7.95;;;5.53;;
43646;SDS011;56152;49.996;18.980;2023-09-19T22:27:57;9.77;;;6.47;;
43646;SDS011;56152;49.996;18.980;2023-09-19T22:33:02;25.75;;;7.30;;
43646;SDS011;56152;49.996;18.980;2023-09-19T22:38:05;8.93;;;6.38;;
43646;SDS011;56152;49.996;18.980;2023-09-19T22:43:11;8.15;;;7.03;;
43646;SDS011;56152;49.996;18.980;2023-09-19T22:48:14;7.85;;;5.63;;
43646;SDS011;56152;49.996;18.980;2023-09-19T22:53:18;10.35;;;5.22;;
43646;SDS011;56152;49.996;18.980;2023-09-19T22:58:23;6.28;;;3.97;;
43646;SDS011;56152;49.996;18.980;2023-09-19T23:03:25;7.70;;;4.28;;
43646;SDS011;56152;49.996;18.980;2023-09-19T23:08:30;10.90;;;6.10;;
43646;SDS011;56152;49.996;18.980;2023-09-19T23:13:34;9.55;;;5.88;;
43646;SDS011;56152;49.996;18.980;2023-09-19T23:18:38;11.25;;;6.75;;
43646;SDS011;56152;49.996;18.980;2023-09-19T23:23:44;9.20;;;6.22;;
43646;SDS011;56152;49.996;18.980;2023-09-19T23:28:48;11.32;;;6.20;;
43646;SDS011;56152;49.996;18.980;2023-09-19T23:33:50;12.43;;;6.75;;
43646;SDS011;56152;49.996;18.980;2023-09-19T23:38:55;14.13;;;5.50;;
43646;SDS011;56152;49.996;18.980;2023-09-19T23:44:01;11.40;;;5.88;;
43646;SDS011;56152;49.996;18.980;2023-09-19T23:49:10;9.82;;;7.32;;
43646;SDS011;56152;49.996;18.980;2023-09-19T23:54:13;9.98;;;6.60;;
43646;SDS011;56152;49.996;18.980;2023-09-19T23:59:25;8.93;;;6.65;;
